sensor_id;sensor_type;location;lat;lon;timestamp;pressure;altitude;pressure_sealevel;temperature;humidity
80781;BME280;70341;56.408;10.874;2023-07-31T00:00:59;100533.02;;;13.81;75.80
80781;BME280;70341;56.408;10.874;2023-07-31T00:03:29;100528.67;;;13.82;75.65
80781;BME280;70341;56.408;10.874;2023-07-31T00:05:58;100533.55;;;13.81;75.67
80781;BME280;70341;56.408;10.874;2023-07-31T00:08:28;100535.67;;;13.78;75.47
80781;BME280;70341;56.408;10.874;2023-07-31T00:10:56;100538.41;;;13.74;75.68
80781;BME280;70341;56.408;10.874;2023-07-31T00:13:27;100534.81;;;13.71;75.56
80781;BME280;70341;56.408;10.874;2023-07-31T00:15:55;100535.10;;;13.70;75.66
80781;BME280;70341;56.408;10.874;2023-07-31T00:18:25;100532.66;;;13.71;75.82
80781;BME280;70341;56.408;10.874;2023-07-31T00:20:53;100534.73;;;13.76;75.73
80781;BME280;70341;56.408;10.874;2023-07-31T00:23:24;100530.02;;;13.77;75.50
80781;BME280;70341;56.408;10.874;2023-07-31T00:25:52;100535.24;;;13.79;75.28
80781;BME280;70341;56.408;10.874;2023-07-31T00:28:23;100530.91;;;13.80;75.08
80781;BME280;70341;56.408;10.874;2023-07-31T00:30:51;100525.40;;;13.83;75.30
80781;BME280;70341;56.408;10.874;2023-07-31T00:33:22;100524.15;;;13.83;75.16
80781;BME280;70341;56.408;10.874;2023-07-31T00:35:50;100519.23;;;13.82;75.10
80781;BME280;70341;56.408;10.874;2023-07-31T00:38:21;100518.67;;;13.78;75.13
80781;BME280;70341;56.408;10.874;2023-07-31T00:40:49;100515.98;;;13.75;75.23
80781;BME280;70341;56.408;10.874;2023-07-31T00:43:19;100516.27;;;13.74;75.12
80781;BME280;70341;56.408;10.874;2023-07-31T00:45:48;100518.05;;;13.74;75.39
80781;BME280;70341;56.408;10.874;2023-07-31T00:48:17;100518.42;;;13.74;75.54
80781;BME280;70341;56.408;10.874;2023-07-31T00:50:46;100520.33;;;13.74;75.57
80781;BME280;70341;56.408;10.874;2023-07-31T00:53:16;100513.24;;;13.77;75.66
80781;BME280;70341;56.408;10.874;2023-07-31T00:55:44;100513.44;;;13.79;75.74
80781;BME280;70341;56.408;10.874;2023-07-31T00:58:14;100515.82;;;13.82;75.51
80781;BME280;70341;56.408;10.874;2023-07-31T01:00:42;100514.95;;;13.84;75.41
80781;BME280;70341;56.408;10.874;2023-07-31T01:03:13;100513.48;;;13.85;75.35
80781;BME280;70341;56.408;10.874;2023-07-31T01:06:04;100507.56;;;13.85;75.20
80781;BME280;70341;56.408;10.874;2023-07-31T01:08:57;100501.42;;;13.84;75.19
80781;BME280;70341;56.408;10.874;2023-07-31T01:11:34;100494.90;;;13.82;75.23
80781;BME280;70341;56.408;10.874;2023-07-31T01:14:07;100491.88;;;13.82;75.04
80781;BME280;70341;56.408;10.874;2023-07-31T01:16:36;100488.27;;;13.83;74.92
80781;BME280;70341;56.408;10.874;2023-07-31T01:19:09;100488.38;;;13.81;74.62
80781;BME280;70341;56.408;10.874;2023-07-31T01:22:28;100482.62;;;13.78;74.53
80781;BME280;70341;56.408;10.874;2023-07-31T01:28:00;100477.83;;;13.68;74.48
80781;BME280;70341;56.408;10.874;2023-07-31T01:30:34;100472.84;;;13.65;74.34
80781;BME280;70341;56.408;10.874;2023-07-31T01:33:08;100474.84;;;13.65;74.37
80781;BME280;70341;56.408;10.874;2023-07-31T01:35:38;100474.63;;;13.62;74.35
80781;BME280;70341;56.408;10.874;2023-07-31T01:38:08;100471.10;;;13.58;74.26
80781;BME280;70341;56.408;10.874;2023-07-31T01:40:36;100468.11;;;13.54;74.11
80781;BME280;70341;56.408;10.874;2023-07-31T01:43:06;100468.09;;;13.51;74.08
80781;BME280;70341;56.408;10.874;2023-07-31T01:45:35;100472.07;;;13.50;74.09
80781;BME280;70341;56.408;10.874;2023-07-31T01:48:05;100469.66;;;13.49;74.00
80781;BME280;70341;56.408;10.874;2023-07-31T01:50:33;100466.98;;;13.49;73.72
80781;BME280;70341;56.408;10.874;2023-07-31T01:53:04;100459.39;;;13.48;73.79
80781;BME280;70341;56.408;10.874;2023-07-31T01:55:32;100457.88;;;13.46;73.88
80781;BME280;70341;56.408;10.874;2023-07-31T01:58:02;100456.17;;;13.45;74.34
80781;BME280;70341;56.408;10.874;2023-07-31T02:00:31;100447.92;;;13.42;73.88
80781;BME280;70341;56.408;10.874;2023-07-31T02:03:01;100448.05;;;13.40;73.72
80781;BME280;70341;56.408;10.874;2023-07-31T02:05:30;100447.67;;;13.40;73.97
80781;BME280;70341;56.408;10.874;2023-07-31T02:08:01;100444.40;;;13.41;74.11
80781;BME280;70341;56.408;10.874;2023-07-31T02:10:32;100439.90;;;13.45;74.71
80781;BME280;70341;56.408;10.874;2023-07-31T02:13:02;100441.19;;;13.50;75.45
80781;BME280;70341;56.408;10.874;2023-07-31T02:15:30;100434.67;;;13.58;75.82
80781;BME280;70341;56.408;10.874;2023-07-31T02:18:00;100432.77;;;13.67;75.91
80781;BME280;70341;56.408;10.874;2023-07-31T02:20:29;100430.83;;;13.78;76.25
80781;BME280;70341;56.408;10.874;2023-07-31T02:22:59;100432.23;;;13.91;76.21
80781;BME280;70341;56.408;10.874;2023-07-31T02:25:28;100432.60;;;14.03;76.05
80781;BME280;70341;56.408;10.874;2023-07-31T02:27:58;100430.76;;;14.12;76.05
80781;BME280;70341;56.408;10.874;2023-07-31T02:30:26;100433.45;;;14.25;76.18
80781;BME280;70341;56.408;10.874;2023-07-31T02:32:57;100424.63;;;14.32;76.21
80781;BME280;70341;56.408;10.874;2023-07-31T02:35:25;100425.48;;;14.38;76.74
80781;BME280;70341;56.408;10.874;2023-07-31T02:37:56;100424.96;;;14.44;76.71
80781;BME280;70341;56.408;10.874;2023-07-31T02:40:24;100423.74;;;14.50;76.80
80781;BME280;70341;56.408;10.874;2023-07-31T02:42:55;100419.50;;;14.54;77.02
80781;BME280;70341;56.408;10.874;2023-07-31T02:45:23;100411.27;;;14.57;77.03
80781;BME280;70341;56.408;10.874;2023-07-31T02:47:53;100405.59;;;14.60;77.13
80781;BME280;70341;56.408;10.874;2023-07-31T02:50:21;100406.09;;;14.66;77.05
80781;BME280;70341;56.408;10.874;2023-07-31T02:52:51;100400.71;;;14.75;77.15
80781;BME280;70341;56.408;10.874;2023-07-31T02:55:19;100393.27;;;14.82;77.11
80781;BME280;70341;56.408;10.874;2023-07-31T02:57:49;100391.59;;;14.86;77.30
80781;BME280;70341;56.408;10.874;2023-07-31T03:00:18;100386.46;;;14.91;77.15
80781;BME280;70341;56.408;10.874;2023-07-31T03:02:47;100388.11;;;14.96;77.33
80781;BME280;70341;56.408;10.874;2023-07-31T03:05:16;100384.05;;;15.03;77.35
80781;BME280;70341;56.408;10.874;2023-07-31T03:07:46;100381.55;;;15.09;77.55
80781;BME280;70341;56.408;10.874;2023-07-31T03:10:15;100376.35;;;15.12;77.73
80781;BME280;70341;56.408;10.874;2023-07-31T03:12:47;100379.66;;;15.13;77.74
80781;BME280;70341;56.408;10.874;2023-07-31T03:15:15;100383.32;;;15.15;77.96
80781;BME280;70341;56.408;10.874;2023-07-31T03:17:45;100368.90;;;15.18;77.86
80781;BME280;70341;56.408;10.874;2023-07-31T03:20:13;100367.86;;;15.24;77.81
80781;BME280;70341;56.408;10.874;2023-07-31T03:22:44;100367.21;;;15.28;77.98
80781;BME280;70341;56.408;10.874;2023-07-31T03:25:12;100362.92;;;15.31;78.35
80781;BME280;70341;56.408;10.874;2023-07-31T03:27:42;100364.33;;;15.31;79.46
80781;BME280;70341;56.408;10.874;2023-07-31T03:30:10;100354.99;;;15.31;79.06
80781;BME280;70341;56.408;10.874;2023-07-31T03:32:40;100359.55;;;15.30;78.93
80781;BME280;70341;56.408;10.874;2023-07-31T03:35:08;100357.05;;;15.25;78.90
80781;BME280;70341;56.408;10.874;2023-07-31T03:37:39;100352.09;;;15.21;78.92
80781;BME280;70341;56.408;10.874;2023-07-31T03:40:08;100354.42;;;15.18;78.53
80781;BME280;70341;56.408;10.874;2023-07-31T03:42:38;100347.35;;;15.19;78.19
80781;BME280;70341;56.408;10.874;2023-07-31T03:45:07;100349.08;;;15.20;78.04
80781;BME280;70341;56.408;10.874;2023-07-31T03:47:37;100338.27;;;15.19;77.90
80781;BME280;70341;56.408;10.874;2023-07-31T03:50:06;100336.84;;;15.14;77.76
80781;BME280;70341;56.408;10.874;2023-07-31T03:52:36;100330.61;;;15.10;77.64
80781;BME280;70341;56.408;10.874;2023-07-31T03:55:05;100332.67;;;15.12;77.49
80781;BME280;70341;56.408;10.874;2023-07-31T03:57:34;100329.10;;;15.12;77.36
80781;BME280;70341;56.408;10.874;2023-07-31T04:00:03;100337.33;;;15.12;77.35
80781;BME280;70341;56.408;10.874;2023-07-31T04:02:33;100343.97;;;15.12;77.24
80781;BME280;70341;56.408;10.874;2023-07-31T04:05:02;100339.77;;;15.10;77.24
80781;BME280;70341;56.408;10.874;2023-07-31T04:07:31;100332.67;;;15.12;77.23
80781;BME280;70341;56.408;10.874;2023-07-31T04:10:00;100326.91;;;15.18;77.15
80781;BME280;70341;56.408;10.874;2023-07-31T04:12:30;100321.77;;;15.22;77.04
80781;BME280;70341;56.408;10.874;2023-07-31T04:14:58;100319.09;;;15.25;77.13
80781;BME280;70341;56.408;10.874;2023-07-31T04:17:29;100315.27;;;15.26;77.28
80781;BME280;70341;56.408;10.874;2023-07-31T04:19:57;100313.38;;;15.27;77.32
80781;BME280;70341;56.408;10.874;2023-07-31T04:22:28;100309.66;;;15.32;77.38
80781;BME280;70341;56.408;10.874;2023-07-31T04:24:56;100310.36;;;15.43;77.18
80781;BME280;70341;56.408;10.874;2023-07-31T04:27:26;100305.35;;;15.53;77.15
80781;BME280;70341;56.408;10.874;2023-07-31T04:29:54;100306.16;;;15.63;76.85
80781;BME280;70341;56.408;10.874;2023-07-31T04:32:25;100304.83;;;15.67;76.94
80781;BME280;70341;56.408;10.874;2023-07-31T04:34:53;100310.16;;;15.73;77.42
80781;BME280;70341;56.408;10.874;2023-07-31T04:37:24;100311.21;;;15.76;78.36
80781;BME280;70341;56.408;10.874;2023-07-31T04:39:52;100310.67;;;15.76;78.45
80781;BME280;70341;56.408;10.874;2023-07-31T04:42:23;100310.09;;;15.74;78.94
80781;BME280;70341;56.408;10.874;2023-07-31T04:44:51;100310.24;;;15.69;79.27
80781;BME280;70341;56.408;10.874;2023-07-31T04:47:22;100316.05;;;15.63;79.76
80781;BME280;70341;56.408;10.874;2023-07-31T04:49:50;100314.30;;;15.53;81.33
80781;BME280;70341;56.408;10.874;2023-07-31T04:52:20;100315.34;;;15.46;81.97
80781;BME280;70341;56.408;10.874;2023-07-31T04:54:49;100300.23;;;15.37;82.01
80781;BME280;70341;56.408;10.874;2023-07-31T04:57:19;100309.29;;;15.35;82.45
80781;BME280;70341;56.408;10.874;2023-07-31T04:59:47;100302.27;;;15.32;82.23
80781;BME280;70341;56.408;10.874;2023-07-31T05:02:20;100298.48;;;15.33;82.03
80781;BME280;70341;56.408;10.874;2023-07-31T05:04:48;100297.98;;;15.35;81.92
80781;BME280;70341;56.408;10.874;2023-07-31T05:07:18;100296.89;;;15.35;81.67
80781;BME280;70341;56.408;10.874;2023-07-31T05:09:47;100294.31;;;15.37;81.46
80781;BME280;70341;56.408;10.874;2023-07-31T05:12:17;100296.98;;;15.42;81.09
80781;BME280;70341;56.408;10.874;2023-07-31T05:14:46;100301.20;;;15.46;80.97
80781;BME280;70341;56.408;10.874;2023-07-31T05:17:16;100301.21;;;15.54;80.92
80781;BME280;70341;56.408;10.874;2023-07-31T05:19:44;100289.64;;;15.61;80.93
80781;BME280;70341;56.408;10.874;2023-07-31T05:22:14;100288.77;;;15.66;80.65
80781;BME280;70341;56.408;10.874;2023-07-31T05:24:42;100294.10;;;15.72;80.57
80781;BME280;70341;56.408;10.874;2023-07-31T05:27:13;100287.11;;;15.72;80.33
80781;BME280;70341;56.408;10.874;2023-07-31T05:29:41;100283.09;;;15.68;79.82
80781;BME280;70341;56.408;10.874;2023-07-31T05:32:12;100278.40;;;15.63;79.31
80781;BME280;70341;56.408;10.874;2023-07-31T05:34:40;100286.52;;;15.56;78.72
80781;BME280;70341;56.408;10.874;2023-07-31T05:37:11;100282.11;;;15.53;77.58
80781;BME280;70341;56.408;10.874;2023-07-31T05:39:39;100279.45;;;15.50;77.48
80781;BME280;70341;56.408;10.874;2023-07-31T05:42:10;100276.98;;;15.44;76.60
80781;BME280;70341;56.408;10.874;2023-07-31T05:44:38;100273.92;;;15.37;76.63
80781;BME280;70341;56.408;10.874;2023-07-31T05:47:09;100272.83;;;15.29;76.84
80781;BME280;70341;56.408;10.874;2023-07-31T05:49:38;100270.48;;;15.21;76.93
80781;BME280;70341;56.408;10.874;2023-07-31T05:52:07;100269.73;;;15.11;76.74
80781;BME280;70341;56.408;10.874;2023-07-31T05:54:35;100271.48;;;15.00;76.83
80781;BME280;70341;56.408;10.874;2023-07-31T05:57:06;100272.85;;;14.88;77.05
80781;BME280;70341;56.408;10.874;2023-07-31T05:59:34;100272.14;;;14.74;77.34
80781;BME280;70341;56.408;10.874;2023-07-31T06:02:05;100273.36;;;14.66;78.26
80781;BME280;70341;56.408;10.874;2023-07-31T06:04:34;100280.59;;;14.57;79.10
80781;BME280;70341;56.408;10.874;2023-07-31T06:07:03;100271.52;;;14.48;79.22
80781;BME280;70341;56.408;10.874;2023-07-31T06:09:32;100272.77;;;14.45;79.31
80781;BME280;70341;56.408;10.874;2023-07-31T06:12:03;100269.05;;;14.41;79.03
80781;BME280;70341;56.408;10.874;2023-07-31T06:14:31;100270.19;;;14.37;78.87
80781;BME280;70341;56.408;10.874;2023-07-31T06:17:02;100259.12;;;14.34;78.74
80781;BME280;70341;56.408;10.874;2023-07-31T06:19:30;100266.03;;;14.38;78.83
80781;BME280;70341;56.408;10.874;2023-07-31T06:22:01;100265.70;;;14.43;78.52
80781;BME280;70341;56.408;10.874;2023-07-31T06:24:29;100255.41;;;14.54;78.55
80781;BME280;70341;56.408;10.874;2023-07-31T06:26:59;100247.11;;;14.66;78.26
80781;BME280;70341;56.408;10.874;2023-07-31T06:29:27;100247.39;;;14.83;77.83
80781;BME280;70341;56.408;10.874;2023-07-31T06:31:58;100250.48;;;15.01;77.07
80781;BME280;70341;56.408;10.874;2023-07-31T06:34:33;100243.49;;;15.18;76.66
80781;BME280;70341;56.408;10.874;2023-07-31T06:37:01;100242.59;;;15.36;76.11
80781;BME280;70341;56.408;10.874;2023-07-31T06:39:32;100241.44;;;15.48;75.66
80781;BME280;70341;56.408;10.874;2023-07-31T06:42:00;100243.11;;;15.60;75.59
80781;BME280;70341;56.408;10.874;2023-07-31T06:44:31;100245.77;;;15.82;75.22
80781;BME280;70341;56.408;10.874;2023-07-31T06:46:59;100241.05;;;16.10;74.98
80781;BME280;70341;56.408;10.874;2023-07-31T06:49:29;100243.01;;;16.33;74.60
80781;BME280;70341;56.408;10.874;2023-07-31T06:51:58;100245.88;;;16.68;73.97
80781;BME280;70341;56.408;10.874;2023-07-31T06:54:28;100249.29;;;17.02;72.93
80781;BME280;70341;56.408;10.874;2023-07-31T06:56:57;100249.23;;;17.24;71.59
80781;BME280;70341;56.408;10.874;2023-07-31T06:59:26;100242.27;;;17.33;71.04
80781;BME280;70341;56.408;10.874;2023-07-31T07:01:55;100238.51;;;17.40;71.03
80781;BME280;70341;56.408;10.874;2023-07-31T07:04:25;100239.33;;;17.46;70.53
80781;BME280;70341;56.408;10.874;2023-07-31T07:06:54;100240.34;;;17.51;70.37
80781;BME280;70341;56.408;10.874;2023-07-31T07:09:24;100238.81;;;17.59;70.47
80781;BME280;70341;56.408;10.874;2023-07-31T07:11:52;100237.52;;;17.74;70.35
80781;BME280;70341;56.408;10.874;2023-07-31T07:14:23;100241.10;;;17.86;69.78
80781;BME280;70341;56.408;10.874;2023-07-31T07:16:51;100239.45;;;18.13;69.52
80781;BME280;70341;56.408;10.874;2023-07-31T07:19:21;100238.28;;;18.43;69.27
80781;BME280;70341;56.408;10.874;2023-07-31T07:21:49;100230.21;;;18.58;68.91
80781;BME280;70341;56.408;10.874;2023-07-31T07:24:19;100232.48;;;18.59;68.96
80781;BME280;70341;56.408;10.874;2023-07-31T07:26:47;100239.34;;;18.46;68.25
80781;BME280;70341;56.408;10.874;2023-07-31T07:29:18;100237.83;;;18.20;67.93
80781;BME280;70341;56.408;10.874;2023-07-31T07:31:46;100235.67;;;18.00;68.88
80781;BME280;70341;56.408;10.874;2023-07-31T07:34:17;100239.58;;;17.89;69.38
80781;BME280;70341;56.408;10.874;2023-07-31T07:36:45;100240.63;;;17.83;69.92
80781;BME280;70341;56.408;10.874;2023-07-31T07:39:15;100239.05;;;17.98;69.83
80781;BME280;70341;56.408;10.874;2023-07-31T07:41:44;100235.45;;;18.23;69.76
80781;BME280;70341;56.408;10.874;2023-07-31T07:44:14;100225.38;;;18.47;69.84
80781;BME280;70341;56.408;10.874;2023-07-31T07:46:43;100225.92;;;18.80;68.71
80781;BME280;70341;56.408;10.874;2023-07-31T07:49:12;100226.05;;;19.13;68.04
80781;BME280;70341;56.408;10.874;2023-07-31T07:51:41;100227.40;;;19.27;67.51
80781;BME280;70341;56.408;10.874;2023-07-31T07:54:11;100220.29;;;19.43;67.33
80781;BME280;70341;56.408;10.874;2023-07-31T07:56:39;100223.93;;;19.64;66.76
80781;BME280;70341;56.408;10.874;2023-07-31T07:59:09;100221.02;;;19.91;65.42
80781;BME280;70341;56.408;10.874;2023-07-31T08:01:37;100219.19;;;20.26;63.37
80781;BME280;70341;56.408;10.874;2023-07-31T08:04:07;100223.61;;;20.29;63.15
80781;BME280;70341;56.408;10.874;2023-07-31T08:06:35;100214.77;;;20.39;62.64
80781;BME280;70341;56.408;10.874;2023-07-31T08:09:06;100214.38;;;20.52;62.28
80781;BME280;70341;56.408;10.874;2023-07-31T08:11:35;100212.13;;;20.75;60.93
80781;BME280;70341;56.408;10.874;2023-07-31T08:14:04;100209.33;;;20.96;58.91
80781;BME280;70341;56.408;10.874;2023-07-31T08:16:33;100210.05;;;21.00;58.78
80781;BME280;70341;56.408;10.874;2023-07-31T08:19:02;100204.96;;;20.94;59.29
80781;BME280;70341;56.408;10.874;2023-07-31T08:21:31;100205.69;;;20.82;59.47
80781;BME280;70341;56.408;10.874;2023-07-31T08:24:01;100202.40;;;20.96;60.05
80781;BME280;70341;56.408;10.874;2023-07-31T08:26:29;100199.95;;;21.07;59.81
80781;BME280;70341;56.408;10.874;2023-07-31T08:28:59;100197.60;;;21.17;58.83
80781;BME280;70341;56.408;10.874;2023-07-31T08:31:27;100196.84;;;21.27;58.20
80781;BME280;70341;56.408;10.874;2023-07-31T08:33:57;100195.61;;;21.24;58.09
80781;BME280;70341;56.408;10.874;2023-07-31T08:36:26;100201.52;;;21.27;57.79
80781;BME280;70341;56.408;10.874;2023-07-31T08:38:59;100195.67;;;21.07;57.13
80781;BME280;70341;56.408;10.874;2023-07-31T08:41:27;100194.69;;;20.82;56.58
80781;BME280;70341;56.408;10.874;2023-07-31T08:43:59;100190.60;;;20.77;57.03
80781;BME280;70341;56.408;10.874;2023-07-31T08:46:27;100189.89;;;20.73;57.35
80781;BME280;70341;56.408;10.874;2023-07-31T08:48:59;100194.02;;;20.79;57.03
80781;BME280;70341;56.408;10.874;2023-07-31T08:51:28;100189.73;;;21.16;56.34
80781;BME280;70341;56.408;10.874;2023-07-31T08:53:59;100184.45;;;21.60;55.65
80781;BME280;70341;56.408;10.874;2023-07-31T08:56:28;100185.72;;;22.13;54.54
80781;BME280;70341;56.408;10.874;2023-07-31T08:59:02;100185.19;;;22.65;53.71
80781;BME280;70341;56.408;10.874;2023-07-31T09:01:38;100180.35;;;23.16;51.29
80781;BME280;70341;56.408;10.874;2023-07-31T09:04:13;100179.69;;;23.62;51.04
80781;BME280;70341;56.408;10.874;2023-07-31T09:06:44;100175.54;;;24.01;48.84
80781;BME280;70341;56.408;10.874;2023-07-31T09:09:14;100181.00;;;23.79;48.48
80781;BME280;70341;56.408;10.874;2023-07-31T09:11:42;100182.69;;;23.45;49.54
80781;BME280;70341;56.408;10.874;2023-07-31T09:14:15;100185.46;;;23.18;49.87
80781;BME280;70341;56.408;10.874;2023-07-31T09:17:10;100182.73;;;22.69;51.21
80781;BME280;70341;56.408;10.874;2023-07-31T09:19:40;100181.55;;;22.26;52.25
80781;BME280;70341;56.408;10.874;2023-07-31T09:22:08;100180.65;;;22.00;52.90
80781;BME280;70341;56.408;10.874;2023-07-31T09:24:38;100177.90;;;21.80;52.60
80781;BME280;70341;56.408;10.874;2023-07-31T09:27:07;100170.73;;;21.61;52.99
80781;BME280;70341;56.408;10.874;2023-07-31T09:29:37;100175.16;;;22.15;52.76
80781;BME280;70341;56.408;10.874;2023-07-31T09:32:15;100174.40;;;22.86;51.55
80781;BME280;70341;56.408;10.874;2023-07-31T09:34:45;100165.81;;;23.71;49.32
80781;BME280;70341;56.408;10.874;2023-07-31T09:37:13;100163.29;;;24.75;46.05
80781;BME280;70341;56.408;10.874;2023-07-31T09:39:48;100151.02;;;25.50;44.13
80781;BME280;70341;56.408;10.874;2023-07-31T09:42:25;100149.59;;;25.28;44.58
80781;BME280;70341;56.408;10.874;2023-07-31T09:45:07;100146.29;;;24.89;44.28
80781;BME280;70341;56.408;10.874;2023-07-31T09:47:36;100150.27;;;25.14;45.14
80781;BME280;70341;56.408;10.874;2023-07-31T09:50:07;100144.36;;;25.70;43.93
80781;BME280;70341;56.408;10.874;2023-07-31T09:52:38;100147.04;;;26.06;42.56
80781;BME280;70341;56.408;10.874;2023-07-31T09:55:08;100143.59;;;25.71;43.12
80781;BME280;70341;56.408;10.874;2023-07-31T09:57:45;100141.82;;;25.08;44.20
80781;BME280;70341;56.408;10.874;2023-07-31T10:00:19;100137.30;;;24.40;45.47
80781;BME280;70341;56.408;10.874;2023-07-31T10:02:51;100142.89;;;23.68;45.33
80781;BME280;70341;56.408;10.874;2023-07-31T10:05:20;100136.82;;;23.25;46.23
80781;BME280;70341;56.408;10.874;2023-07-31T10:07:55;100131.09;;;23.44;46.92
80781;BME280;70341;56.408;10.874;2023-07-31T10:10:27;100135.00;;;23.94;46.21
80781;BME280;70341;56.408;10.874;2023-07-31T10:12:56;100124.89;;;24.29;45.59
80781;BME280;70341;56.408;10.874;2023-07-31T10:15:27;100125.77;;;24.20;45.53
80781;BME280;70341;56.408;10.874;2023-07-31T10:17:56;100124.67;;;24.29;47.00
80781;BME280;70341;56.408;10.874;2023-07-31T10:20:27;100123.53;;;24.36;47.24
80781;BME280;70341;56.408;10.874;2023-07-31T10:22:57;100123.71;;;24.24;47.76
80781;BME280;70341;56.408;10.874;2023-07-31T10:25:27;100133.18;;;24.53;46.96
80781;BME280;70341;56.408;10.874;2023-07-31T10:27:57;100119.39;;;24.79;45.64
80781;BME280;70341;56.408;10.874;2023-07-31T10:30:30;100128.65;;;24.96;44.93
80781;BME280;70341;56.408;10.874;2023-07-31T10:33:03;100121.70;;;25.82;42.74
80781;BME280;70341;56.408;10.874;2023-07-31T10:35:31;100126.73;;;26.41;41.14
80781;BME280;70341;56.408;10.874;2023-07-31T10:38:12;100119.00;;;26.85;39.55
80781;BME280;70341;56.408;10.874;2023-07-31T10:40:42;100120.70;;;28.39;37.45
80781;BME280;70341;56.408;10.874;2023-07-31T10:43:23;100117.13;;;28.95;36.65
80781;BME280;70341;56.408;10.874;2023-07-31T10:45:53;100119.57;;;29.38;34.66
80781;BME280;70341;56.408;10.874;2023-07-31T10:48:22;100111.21;;;29.51;34.82
80781;BME280;70341;56.408;10.874;2023-07-31T10:50:55;100106.16;;;28.57;35.65
80781;BME280;70341;56.408;10.874;2023-07-31T10:53:28;100116.18;;;27.92;36.61
80781;BME280;70341;56.408;10.874;2023-07-31T10:56:05;100106.92;;;28.32;35.64
80781;BME280;70341;56.408;10.874;2023-07-31T10:58:36;100101.16;;;28.10;36.07
80781;BME280;70341;56.408;10.874;2023-07-31T11:01:06;100106.71;;;27.33;36.82
80781;BME280;70341;56.408;10.874;2023-07-31T11:03:45;100107.96;;;26.40;38.01
80781;BME280;70341;56.408;10.874;2023-07-31T11:06:16;100107.79;;;25.33;40.29
80781;BME280;70341;56.408;10.874;2023-07-31T11:08:49;100105.77;;;24.34;42.30
80781;BME280;70341;56.408;10.874;2023-07-31T11:11:20;100107.95;;;23.59;44.11
80781;BME280;70341;56.408;10.874;2023-07-31T11:13:52;100113.23;;;22.99;45.54
80781;BME280;70341;56.408;10.874;2023-07-31T11:16:24;100120.80;;;22.58;47.07
80781;BME280;70341;56.408;10.874;2023-07-31T11:18:53;100124.55;;;22.21;48.09
80781;BME280;70341;56.408;10.874;2023-07-31T11:21:25;100127.77;;;21.88;49.10
80781;BME280;70341;56.408;10.874;2023-07-31T11:23:57;100129.52;;;21.49;50.67
80781;BME280;70341;56.408;10.874;2023-07-31T11:26:30;100146.01;;;21.25;51.52
80781;BME280;70341;56.408;10.874;2023-07-31T11:28:58;100147.46;;;21.00;52.71
80781;BME280;70341;56.408;10.874;2023-07-31T11:31:29;100148.38;;;20.73;54.47
80781;BME280;70341;56.408;10.874;2023-07-31T11:34:07;100153.00;;;20.44;56.24
80781;BME280;70341;56.408;10.874;2023-07-31T11:36:36;100152.80;;;20.24;57.15
80781;BME280;70341;56.408;10.874;2023-07-31T11:39:08;100159.39;;;20.23;58.77
80781;BME280;70341;56.408;10.874;2023-07-31T11:41:41;100157.09;;;20.68;59.46
80781;BME280;70341;56.408;10.874;2023-07-31T11:44:09;100157.66;;;21.59;58.39
80781;BME280;70341;56.408;10.874;2023-07-31T11:46:57;100153.52;;;22.43;56.93
80781;BME280;70341;56.408;10.874;2023-07-31T11:49:25;100145.91;;;23.32;54.49
80781;BME280;70341;56.408;10.874;2023-07-31T11:51:55;100138.75;;;24.66;52.02
80781;BME280;70341;56.408;10.874;2023-07-31T11:54:24;100136.45;;;27.21;47.42
80781;BME280;70341;56.408;10.874;2023-07-31T11:56:54;100139.41;;;29.74;43.11
80781;BME280;70341;56.408;10.874;2023-07-31T11:59:22;100134.66;;;31.34;40.06
80781;BME280;70341;56.408;10.874;2023-07-31T12:01:53;100133.67;;;30.90;38.59
80781;BME280;70341;56.408;10.874;2023-07-31T12:04:23;100147.38;;;29.88;38.27
80781;BME280;70341;56.408;10.874;2023-07-31T12:06:53;100143.41;;;28.96;39.63
80781;BME280;70341;56.408;10.874;2023-07-31T12:09:26;100147.45;;;28.06;39.97
80781;BME280;70341;56.408;10.874;2023-07-31T12:11:55;100139.81;;;27.60;40.98
80781;BME280;70341;56.408;10.874;2023-07-31T12:14:26;100139.52;;;27.98;40.83
80781;BME280;70341;56.408;10.874;2023-07-31T12:17:04;100138.70;;;28.89;38.87
80781;BME280;70341;56.408;10.874;2023-07-31T12:19:34;100131.93;;;29.33;38.21
80781;BME280;70341;56.408;10.874;2023-07-31T12:22:11;100131.42;;;29.50;38.13
80781;BME280;70341;56.408;10.874;2023-07-31T12:24:43;100125.46;;;28.77;39.09
80781;BME280;70341;56.408;10.874;2023-07-31T12:27:13;100116.25;;;27.67;40.18
80781;BME280;70341;56.408;10.874;2023-07-31T12:29:43;100114.73;;;26.83;41.54
80781;BME280;70341;56.408;10.874;2023-07-31T12:32:25;100112.98;;;26.09;43.35
80781;BME280;70341;56.408;10.874;2023-07-31T12:34:59;100114.72;;;25.41;44.54
80781;BME280;70341;56.408;10.874;2023-07-31T12:37:28;100117.20;;;24.84;45.52
80781;BME280;70341;56.408;10.874;2023-07-31T12:39:58;100116.84;;;24.41;46.62
80781;BME280;70341;56.408;10.874;2023-07-31T12:42:26;100112.14;;;24.17;47.44
80781;BME280;70341;56.408;10.874;2023-07-31T12:44:56;100107.87;;;23.99;48.09
80781;BME280;70341;56.408;10.874;2023-07-31T12:47:25;100103.20;;;23.85;48.64
80781;BME280;70341;56.408;10.874;2023-07-31T12:49:55;100106.08;;;23.75;49.26
80781;BME280;70341;56.408;10.874;2023-07-31T12:52:24;100102.48;;;23.83;49.44
80781;BME280;70341;56.408;10.874;2023-07-31T12:54:54;100103.14;;;23.99;49.49
80781;BME280;70341;56.408;10.874;2023-07-31T12:57:22;100097.81;;;23.97;49.30
80781;BME280;70341;56.408;10.874;2023-07-31T12:59:52;100098.83;;;23.74;49.81